createdAt,value
2017-10-01T00:00:39.423Z,10.90
2017-10-01T00:03:08.654Z,10.90
2017-10-01T00:05:37.934Z,10.90
2017-10-01T00:08:07.174Z,10.90
2017-10-01T00:10:37.211Z,10.90
2017-10-01T00:13:06.459Z,10.90
2017-10-01T00:15:35.697Z,10.90
2017-10-01T00:18:05.731Z,10.90
2017-10-01T00:20:34.972Z,10.90
2017-10-01T00:23:04.214Z,10.90
2017-10-01T00:25:34.246Z,10.90
2017-10-01T00:28:03.498Z,10.90
2017-10-01T00:30:32.765Z,10.90
2017-10-01T00:33:02.024Z,10.90
2017-10-01T00:35:32.033Z,10.90
2017-10-01T00:38:01.280Z,10.80
2017-10-01T00:40:30.566Z,10.90
2017-10-01T00:42:59.837Z,10.90
2017-10-01T00:45:29.897Z,10.80
2017-10-01T00:47:59.142Z,10.80
2017-10-01T00:50:28.386Z,10.80
2017-10-01T00:52:57.860Z,10.80
2017-10-01T00:55:27.119Z,10.80
2017-10-01T00:57:56.398Z,10.80
2017-10-01T01:00:25.769Z,10.60
2017-10-01T01:02:55.814Z,10.50
2017-10-01T01:05:25.034Z,10.50
2017-10-01T01:07:54.294Z,10.40
2017-10-01T01:10:24.337Z,10.20
2017-10-01T01:12:53.773Z,10.20
2017-10-01T01:15:23.221Z,10.10
2017-10-01T01:17:53.258Z,10.00
2017-10-01T01:20:22.530Z,10.00
2017-10-01T01:22:51.791Z,10.00
2017-10-01T01:25:21.032Z,10.00
2017-10-01T01:27:50.345Z,10.00
2017-10-01T01:30:20.358Z,9.90
2017-10-01T01:32:49.638Z,9.80
2017-10-01T01:35:18.873Z,9.90
2017-10-01T01:37:48.907Z,9.80
2017-10-01T01:40:18.206Z,9.80
2017-10-01T01:42:47.418Z,9.80
2017-10-01T01:45:16.669Z,9.70
2017-10-01T01:47:45.910Z,9.70
2017-10-01T01:50:15.169Z,9.70
2017-10-01T01:52:44.406Z,9.60
2017-10-01T01:55:14.405Z,9.50
2017-10-01T01:57:43.681Z,9.50
2017-10-01T02:00:13.698Z,9.40
2017-10-01T02:02:42.952Z,9.40
2017-10-01T02:05:12.221Z,9.30
2017-10-01T02:07:41.475Z,9.10
2017-10-01T02:10:11.437Z,9.00
2017-10-01T02:12:40.706Z,9.00
2017-10-01T02:15:09.961Z,8.90
2017-10-01T02:17:39.189Z,8.90
2017-10-01T02:20:08.436Z,8.90
2017-10-01T02:22:37.681Z,8.90
2017-10-01T02:25:06.929Z,8.90
2017-10-01T02:27:36.190Z,8.90
2017-10-01T02:30:05.449Z,8.90
2017-10-01T02:32:34.842Z,8.80
2017-10-01T02:35:04.880Z,8.80
2017-10-01T02:37:34.114Z,8.80
2017-10-01T02:40:03.438Z,8.90
2017-10-01T02:42:32.701Z,8.90
2017-10-01T02:45:01.949Z,8.80
2017-10-01T02:47:31.226Z,8.80
2017-10-01T02:50:00.470Z,8.80
2017-10-01T02:52:29.722Z,8.70
2017-10-01T02:54:58.954Z,8.70
2017-10-01T02:57:28.297Z,8.60
2017-10-01T02:59:57.646Z,8.60
2017-10-01T03:02:27.081Z,8.50
2017-10-01T03:04:57.090Z,8.40
2017-10-01T03:07:26.505Z,8.40
2017-10-01T03:09:56.677Z,8.30
2017-10-01T03:12:26.035Z,8.30
2017-10-01T03:14:55.283Z,8.30
2017-10-01T03:17:24.553Z,8.30
2017-10-01T03:19:53.994Z,8.20
2017-10-01T03:22:23.261Z,8.10
2017-10-01T03:24:52.584Z,8.10
2017-10-01T03:27:21.939Z,8.00
2017-10-01T03:29:52.055Z,8.00
2017-10-01T03:32:22.064Z,8.00
2017-10-01T03:34:51.473Z,7.90
2017-10-01T03:37:20.759Z,7.90
2017-10-01T03:39:50.001Z,7.80
2017-10-01T03:42:19.454Z,7.80
2017-10-01T03:44:48.751Z,7.80
2017-10-01T03:47:18.042Z,7.80
2017-10-01T03:49:47.270Z,7.80
2017-10-01T03:52:16.516Z,7.80
2017-10-01T03:54:45.750Z,7.80
2017-10-01T03:57:15.024Z,7.80
2017-10-01T03:59:44.265Z,7.80
2017-10-01T04:02:13.497Z,7.90
2017-10-01T04:04:42.893Z,7.90
2017-10-01T04:07:12.904Z,7.90
2017-10-01T04:09:42.944Z,7.90
2017-10-01T04:12:12.166Z,7.90
2017-10-01T04:14:41.616Z,7.90
2017-10-01T04:17:10.867Z,7.90
2017-10-01T04:19:40.129Z,7.90
2017-10-01T04:22:09.466Z,7.80
2017-10-01T04:24:38.749Z,7.80
2017-10-01T04:27:08.857Z,7.70
2017-10-01T04:29:38.125Z,7.70
2017-10-01T04:32:07.371Z,7.70
2017-10-01T04:34:36.622Z,7.70
2017-10-01T04:37:05.849Z,7.70
2017-10-01T04:39:35.101Z,7.70
2017-10-01T04:42:04.338Z,7.60
2017-10-01T04:44:33.753Z,7.50
2017-10-01T04:47:03.110Z,7.50
2017-10-01T04:49:32.368Z,7.50
2017-10-01T04:52:01.647Z,7.50
2017-10-01T04:54:31.044Z,7.40
2017-10-01T04:57:00.298Z,7.30
2017-10-01T04:59:29.521Z,7.30
2017-10-01T05:01:58.775Z,7.30
2017-10-01T05:04:28.881Z,7.40
2017-10-01T05:06:58.893Z,7.20
2017-10-01T05:09:28.135Z,7.20
2017-10-01T05:11:57.408Z,7.20
2017-10-01T05:14:26.688Z,7.10
2017-10-01T05:16:55.933Z,7.10
2017-10-01T05:19:26.234Z,7.10
2017-10-01T05:21:55.465Z,7.10
2017-10-01T05:24:24.702Z,7.20
2017-10-01T05:26:54.017Z,7.10
2017-10-01T05:29:23.245Z,7.10
2017-10-01T05:31:53.258Z,7.20
2017-10-01T05:34:22.501Z,7.20
2017-10-01T05:36:51.754Z,7.20
2017-10-01T05:39:21.049Z,7.20
2017-10-01T05:41:50.304Z,7.10
2017-10-01T05:44:19.537Z,7.10
2017-10-01T05:46:48.794Z,7.20
2017-10-01T05:49:18.022Z,7.20
2017-10-01T05:51:47.354Z,7.30
2017-10-01T05:54:16.610Z,7.30
2017-10-01T05:56:45.863Z,7.40
2017-10-01T05:59:15.187Z,7.40
2017-10-01T06:01:44.405Z,7.40
2017-10-01T06:04:13.652Z,7.50
2017-10-01T06:06:43.025Z,7.50
2017-10-01T06:09:13.189Z,7.60
2017-10-01T06:11:42.592Z,7.70
2017-10-01T06:14:11.957Z,7.70
2017-10-01T06:16:41.209Z,7.80
2017-10-01T06:19:11.298Z,8.00
2017-10-01T06:21:40.549Z,8.00
2017-10-01T06:24:09.793Z,8.20
2017-10-01T06:26:39.033Z,8.50
2017-10-01T06:29:09.329Z,9.10
2017-10-01T06:31:38.589Z,9.10
2017-10-01T06:34:08.041Z,9.30
2017-10-01T06:36:38.001Z,9.40
2017-10-01T06:39:07.262Z,9.60
2017-10-01T06:41:36.545Z,9.90
2017-10-01T06:44:05.983Z,10.10
2017-10-01T06:46:36.001Z,10.40
2017-10-01T06:49:05.289Z,10.40
2017-10-01T06:51:34.537Z,10.40
2017-10-01T06:54:03.813Z,10.60
2017-10-01T06:56:33.086Z,10.70
2017-10-01T06:59:02.341Z,10.70
2017-10-01T07:01:31.616Z,10.90
2017-10-01T07:04:00.886Z,11.10
2017-10-01T07:06:42.777Z,11.20
2017-10-01T07:09:12.832Z,11.60
2017-10-01T07:11:42.353Z,11.60
2017-10-01T07:14:11.729Z,11.50
2017-10-01T07:16:41.048Z,11.60
2017-10-01T07:19:11.451Z,12.30
2017-10-01T07:21:40.703Z,12.30
2017-10-01T07:24:10.164Z,12.70
2017-10-01T07:26:40.265Z,13.00
2017-10-01T07:29:09.530Z,13.00
2017-10-01T07:31:39.003Z,13.20
2017-10-01T07:34:08.220Z,13.40
2017-10-01T07:36:37.526Z,14.00
2017-10-01T07:39:06.912Z,14.90
2017-10-01T07:41:36.753Z,15.70
2017-10-01T07:44:06.030Z,16.40
2017-10-01T07:46:35.285Z,17.50
2017-10-01T07:49:04.821Z,18.20
2017-10-01T07:51:34.879Z,18.20
2017-10-01T07:54:04.131Z,18.10
2017-10-01T07:56:33.431Z,17.20
2017-10-01T07:59:02.690Z,16.10
2017-10-01T08:01:32.131Z,15.50
2017-10-01T08:04:02.157Z,14.10
2017-10-01T08:06:31.426Z,14.10
2017-10-01T08:09:00.707Z,13.80
2017-10-01T08:11:30.080Z,13.30
2017-10-01T08:13:59.365Z,13.00
2017-10-01T08:16:29.390Z,12.50
2017-10-01T08:18:58.785Z,12.50
2017-10-01T08:21:28.822Z,12.50
2017-10-01T08:23:58.081Z,12.50
2017-10-01T08:26:27.351Z,12.40
2017-10-01T08:28:56.614Z,12.30
2017-10-01T08:31:25.873Z,12.20
2017-10-01T08:33:55.153Z,12.10
2017-10-01T08:36:24.409Z,12.00
2017-10-01T08:38:54.454Z,12.00
2017-10-01T08:41:23.706Z,12.00
2017-10-01T08:43:52.946Z,12.00
2017-10-01T08:46:22.256Z,11.70
2017-10-01T08:48:51.640Z,11.60
2017-10-01T08:51:20.979Z,11.40
2017-10-01T08:53:50.321Z,11.40
2017-10-01T08:56:20.377Z,11.30
2017-10-01T08:58:49.654Z,11.30
2017-10-01T09:01:19.057Z,11.30
2017-10-01T09:03:49.122Z,11.40
2017-10-01T09:06:18.481Z,11.40
2017-10-01T09:08:48.537Z,11.60
2017-10-01T09:11:17.802Z,11.60
2017-10-01T09:13:47.102Z,11.70
2017-10-01T09:16:16.710Z,11.80
2017-10-01T09:18:46.830Z,12.40
2017-10-01T09:21:16.867Z,12.50
2017-10-01T09:23:46.263Z,12.50
2017-10-01T09:26:16.279Z,12.20
2017-10-01T09:28:45.569Z,12.20
2017-10-01T09:31:14.989Z,12.20
2017-10-01T09:33:45.109Z,12.40
2017-10-01T09:36:14.368Z,12.40
2017-10-01T09:38:43.703Z,12.40
2017-10-01T09:41:13.730Z,12.60
2017-10-01T09:43:43.006Z,12.60
2017-10-01T09:46:12.366Z,12.80
2017-10-01T09:48:41.613Z,12.80
2017-10-01T09:51:11.663Z,13.20
2017-10-01T09:53:40.984Z,13.20
2017-10-01T09:56:10.238Z,13.30
2017-10-01T09:58:39.502Z,13.30
2017-10-01T10:01:09.507Z,13.30
2017-10-01T10:03:38.760Z,13.50
2017-10-01T10:06:08.129Z,13.70
2017-10-01T10:08:37.392Z,14.10
2017-10-01T10:11:06.671Z,14.00
2017-10-01T10:13:36.714Z,14.10
2017-10-01T10:16:06.099Z,14.10
2017-10-01T10:18:36.215Z,14.50
2017-10-01T10:21:06.254Z,14.20
2017-10-01T10:23:35.839Z,14.20
2017-10-01T10:26:05.865Z,14.30
2017-10-01T10:28:35.145Z,14.40
2017-10-01T10:31:05.166Z,14.90
2017-10-01T10:33:34.420Z,14.90
2017-10-01T10:36:03.685Z,15.10
2017-10-01T10:38:33.812Z,15.10
2017-10-01T10:41:03.062Z,15.10
2017-10-01T10:43:32.330Z,15.10
2017-10-01T10:46:01.798Z,14.90
2017-10-01T10:48:31.853Z,14.20
2017-10-01T10:51:01.246Z,14.20
2017-10-01T10:53:30.505Z,14.40
2017-10-01T10:56:00.011Z,14.70
2017-10-01T10:58:29.334Z,14.70
2017-10-01T11:00:59.380Z,15.10
2017-10-01T11:03:28.634Z,15.10
2017-10-01T11:05:57.885Z,15.40
2017-10-01T11:08:27.165Z,15.60
2017-10-01T11:10:57.280Z,15.60
2017-10-01T11:13:27.393Z,15.50
2017-10-01T11:15:57.714Z,15.70
2017-10-01T11:18:27.763Z,15.80
2017-10-01T11:20:57.152Z,15.80
2017-10-01T11:23:27.186Z,15.80
2017-10-01T11:25:56.465Z,15.70
2017-10-01T11:28:25.790Z,15.70
2017-10-01T11:30:55.165Z,16.10
2017-10-01T11:33:25.215Z,18.40
2017-10-01T11:35:54.625Z,18.40
2017-10-01T11:38:24.611Z,22.20
2017-10-01T11:40:53.878Z,22.10
2017-10-01T11:43:23.171Z,21.70
2017-10-01T11:45:52.438Z,21.30
2017-10-01T11:48:21.690Z,20.60
2017-10-01T11:50:51.014Z,20.70
2017-10-01T11:53:21.060Z,19.60
2017-10-01T11:55:50.300Z,19.60
2017-10-01T11:58:19.574Z,19.40
2017-10-01T12:00:48.821Z,19.50
2017-10-01T12:03:18.229Z,19.50
2017-10-01T12:05:48.264Z,19.20
2017-10-01T12:08:17.546Z,19.20
2017-10-01T12:10:46.950Z,18.90
2017-10-01T12:13:16.256Z,18.80
2017-10-01T12:15:45.578Z,18.80
2017-10-01T12:18:14.840Z,18.60
2017-10-01T12:20:44.197Z,18.20
2017-10-01T12:23:13.490Z,18.10
2017-10-01T12:25:43.513Z,17.80
2017-10-01T12:28:12.788Z,17.80
2017-10-01T12:30:42.286Z,17.80
2017-10-01T12:33:11.810Z,17.80
2017-10-01T12:35:41.817Z,18.10
2017-10-01T12:38:11.221Z,18.10
2017-10-01T12:40:41.251Z,19.30
2017-10-01T12:43:10.521Z,19.20
2017-10-01T12:45:39.800Z,19.50
2017-10-01T12:48:09.033Z,19.60
2017-10-01T12:50:38.347Z,19.20
2017-10-01T12:53:08.397Z,18.90
2017-10-01T12:55:38.210Z,18.90
2017-10-01T12:58:12.911Z,18.80
2017-10-01T13:00:42.189Z,19.00
2017-10-01T13:03:12.206Z,18.50
2017-10-01T13:05:41.485Z,18.50
2017-10-01T13:08:10.771Z,18.50
2017-10-01T13:10:40.029Z,18.50
2017-10-01T13:13:09.410Z,18.60
2017-10-01T13:15:38.932Z,18.60
2017-10-01T13:18:08.172Z,18.40
2017-10-01T13:20:37.444Z,18.40
2017-10-01T13:23:06.760Z,18.40
2017-10-01T13:25:36.009Z,18.40
2017-10-01T13:28:05.269Z,18.50
2017-10-01T13:30:34.519Z,18.50
2017-10-01T13:33:03.805Z,18.40
2017-10-01T13:35:33.042Z,18.40
2017-10-01T13:38:02.341Z,18.40
2017-10-01T13:40:32.361Z,18.20
2017-10-01T13:43:02.693Z,18.20
2017-10-01T13:45:32.734Z,18.10
2017-10-01T13:48:01.978Z,18.10
2017-10-01T13:50:31.244Z,18.00
2017-10-01T13:53:00.536Z,17.80
2017-10-01T13:55:29.974Z,17.80
2017-10-01T13:57:59.239Z,17.80
2017-10-01T14:00:28.484Z,17.80
2017-10-01T14:02:57.751Z,17.70
2017-10-01T14:05:32.274Z,17.90
2017-10-01T14:08:01.542Z,17.80
2017-10-01T14:10:30.810Z,17.90
2017-10-01T14:13:00.081Z,17.70
2017-10-01T14:15:29.321Z,17.70
2017-10-01T14:17:58.606Z,17.60
2017-10-01T14:20:27.879Z,17.70
2017-10-01T14:22:57.165Z,17.60
2017-10-01T14:25:26.401Z,17.50
2017-10-01T14:27:55.702Z,17.40
2017-10-01T14:33:25.998Z,17.10
2017-10-01T14:35:56.029Z,17.10
2017-10-01T14:38:25.310Z,17.00
2017-10-01T14:40:54.589Z,17.10
2017-10-01T14:43:24.011Z,17.20
2017-10-01T14:45:54.035Z,17.20
2017-10-01T14:48:23.309Z,17.20
2017-10-01T14:50:52.551Z,17.10
2017-10-01T14:53:22.623Z,16.90
2017-10-01T14:55:51.986Z,16.90
2017-10-01T14:58:21.984Z,16.70
2017-10-01T15:00:51.273Z,16.80
2017-10-01T15:03:20.497Z,16.70
2017-10-01T15:05:49.754Z,16.60
2017-10-01T15:08:19.029Z,16.30
2017-10-01T15:10:48.299Z,16.30
2017-10-01T15:13:17.574Z,16.40
2017-10-01T15:15:46.837Z,16.40
2017-10-01T15:18:16.119Z,16.40
2017-10-01T15:20:45.547Z,16.60
2017-10-01T15:23:14.809Z,16.50
2017-10-01T15:25:44.213Z,16.50
2017-10-01T15:28:13.463Z,16.50
2017-10-01T15:30:42.737Z,16.60
2017-10-01T15:33:11.998Z,16.60
2017-10-01T15:35:42.089Z,16.60
2017-10-01T15:38:11.350Z,16.50
2017-10-01T15:40:40.605Z,16.50
2017-10-01T15:43:10.637Z,16.40
2017-10-01T15:45:39.905Z,16.30
2017-10-01T15:48:09.243Z,16.20
2017-10-01T15:50:39.262Z,16.10
2017-10-01T15:53:09.302Z,15.90
2017-10-01T15:55:38.564Z,15.90
2017-10-01T15:58:07.892Z,15.50
2017-10-01T16:00:37.181Z,15.30
2017-10-01T16:03:06.704Z,15.30
2017-10-01T16:05:35.910Z,15.00
2017-10-01T16:08:05.283Z,15.00
2017-10-01T16:10:34.591Z,14.90
2017-10-01T16:13:04.662Z,14.80
2017-10-01T16:15:33.922Z,14.80
2017-10-01T16:18:03.205Z,14.70
2017-10-01T16:20:32.490Z,14.60
2017-10-01T16:23:02.548Z,14.40
2017-10-01T16:25:31.877Z,14.30
2017-10-01T16:28:01.131Z,14.30
2017-10-01T16:30:31.172Z,14.30
2017-10-01T16:33:00.427Z,14.30
2017-10-01T16:35:29.694Z,14.20
2017-10-01T16:37:59.153Z,14.10
2017-10-01T16:40:29.282Z,14.00
2017-10-01T16:42:59.322Z,13.90
2017-10-01T16:45:28.697Z,13.90
2017-10-01T16:47:58.737Z,13.80
2017-10-01T16:50:28.668Z,13.80
2017-10-01T16:52:57.941Z,13.80
2017-10-01T16:55:27.202Z,13.80
2017-10-01T16:57:56.452Z,13.60
2017-10-01T17:00:26.495Z,13.50
2017-10-01T17:02:55.733Z,13.50
2017-10-01T17:05:24.981Z,13.40
2017-10-01T17:07:54.454Z,13.30
2017-10-01T17:10:23.745Z,13.20
2017-10-01T17:12:52.994Z,13.10
2017-10-01T17:15:22.492Z,13.10
2017-10-01T17:17:51.706Z,13.00
2017-10-01T17:20:20.966Z,12.80
2017-10-01T17:22:51.011Z,12.70
2017-10-01T17:25:20.255Z,12.60
2017-10-01T17:27:49.522Z,12.60
2017-10-01T17:30:18.785Z,12.40
2017-10-01T17:32:48.841Z,12.10
2017-10-01T17:35:18.138Z,12.10
2017-10-01T17:37:47.451Z,12.10
2017-10-01T17:40:16.795Z,12.10
2017-10-01T17:42:46.046Z,12.10
2017-10-01T17:45:15.299Z,12.10
2017-10-01T17:47:44.561Z,12.10
2017-10-01T17:50:13.824Z,12.10
2017-10-01T17:52:43.890Z,12.10
2017-10-01T17:55:13.126Z,12.10
2017-10-01T17:57:42.406Z,12.10
2017-10-01T18:00:11.677Z,12.20
2017-10-01T18:02:40.926Z,12.20
2017-10-01T18:05:10.251Z,12.20
2017-10-01T18:07:40.590Z,12.20
2017-10-01T18:10:09.857Z,12.10
2017-10-01T18:12:39.899Z,12.10
2017-10-01T18:15:09.146Z,12.10
2017-10-01T18:17:38.390Z,12.10
2017-10-01T18:20:08.421Z,12.10
2017-10-01T18:22:37.727Z,12.10
2017-10-01T18:25:06.961Z,12.10
2017-10-01T18:27:36.327Z,12.10
2017-10-01T18:30:05.559Z,12.10
2017-10-01T18:32:35.046Z,12.10
2017-10-01T18:35:05.040Z,11.90
2017-10-01T18:37:34.296Z,11.90
2017-10-01T18:40:03.558Z,12.00
2017-10-01T18:42:32.834Z,12.00
2017-10-01T18:45:02.910Z,12.00
2017-10-01T18:47:32.173Z,11.90
2017-10-01T18:50:01.459Z,11.90
2017-10-01T18:52:31.481Z,11.80
2017-10-01T18:55:00.881Z,11.80
2017-10-01T18:57:30.133Z,11.80
2017-10-01T18:59:59.583Z,11.80
2017-10-01T19:02:29.742Z,11.70
2017-10-01T19:04:59.010Z,11.70
2017-10-01T19:07:28.299Z,11.80
2017-10-01T19:09:59.061Z,11.70
2017-10-01T19:12:28.953Z,11.70
2017-10-01T19:14:58.234Z,11.70
2017-10-01T19:17:27.494Z,11.70
2017-10-01T19:19:56.756Z,11.70
2017-10-01T19:22:26.025Z,11.70
2017-10-01T19:24:55.285Z,11.70
2017-10-01T19:27:24.657Z,11.60
2017-10-01T19:29:53.927Z,11.60
2017-10-01T19:32:23.170Z,11.50
2017-10-01T19:34:52.418Z,11.50
2017-10-01T19:37:21.703Z,11.50
2017-10-01T19:39:50.946Z,11.50
2017-10-01T19:42:20.235Z,11.50
2017-10-01T19:44:49.470Z,11.50
2017-10-01T19:47:18.861Z,11.50
2017-10-01T19:49:49.530Z,11.50
2017-10-01T19:52:18.794Z,11.50
2017-10-01T19:54:48.209Z,11.60
2017-10-01T19:57:18.221Z,11.60
2017-10-01T19:59:47.511Z,11.60
2017-10-01T20:02:18.361Z,11.50
2017-10-01T20:04:48.401Z,11.50
2017-10-01T20:07:17.631Z,11.40
2017-10-01T20:09:46.873Z,11.50
2017-10-01T20:12:16.181Z,11.60
2017-10-01T20:14:45.575Z,11.60
2017-10-01T20:17:14.829Z,11.60
2017-10-01T20:19:44.797Z,11.60
2017-10-01T20:22:14.203Z,11.60
2017-10-01T20:24:43.471Z,11.60
2017-10-01T20:27:12.811Z,11.60
2017-10-01T20:29:42.834Z,11.60
2017-10-01T20:32:12.095Z,11.60
2017-10-01T20:34:41.353Z,11.60
2017-10-01T20:37:10.617Z,11.60
2017-10-01T20:39:41.475Z,11.60
2017-10-01T20:42:11.543Z,11.60
2017-10-01T20:44:41.029Z,11.60
2017-10-01T20:47:10.290Z,11.60
2017-10-01T20:49:39.569Z,11.60
2017-10-01T20:52:08.938Z,11.60
2017-10-01T20:54:38.213Z,11.60
2017-10-01T20:57:07.617Z,11.60
2017-10-01T20:59:37.658Z,11.60
2017-10-01T21:02:06.897Z,11.50
2017-10-01T21:04:36.353Z,11.60
2017-10-01T21:07:05.597Z,11.50
2017-10-01T21:09:34.853Z,11.50
2017-10-01T21:12:04.233Z,11.60
2017-10-01T21:14:34.266Z,11.60
2017-10-01T21:17:03.528Z,11.60
2017-10-01T21:19:32.797Z,11.60
2017-10-01T21:22:02.074Z,11.60
2017-10-01T21:24:32.086Z,11.50
2017-10-01T21:27:01.493Z,11.50
2017-10-01T21:29:31.556Z,11.60
2017-10-01T21:32:00.938Z,11.50
2017-10-01T21:34:30.405Z,11.60
2017-10-01T21:37:01.768Z,11.50
2017-10-01T21:39:31.808Z,11.60
2017-10-01T21:42:01.202Z,11.50
2017-10-01T21:44:30.414Z,11.60
2017-10-01T21:47:00.606Z,11.60
2017-10-01T21:49:30.638Z,11.60
2017-10-01T21:51:59.921Z,11.60
2017-10-01T21:54:29.154Z,11.60
2017-10-01T21:56:58.407Z,11.60
2017-10-01T21:59:27.676Z,11.60
2017-10-01T22:01:57.015Z,11.60
2017-10-01T22:04:26.315Z,11.60
2017-10-01T22:06:55.828Z,11.70
2017-10-01T22:09:25.107Z,11.70
2017-10-01T22:11:54.359Z,11.60
2017-10-01T22:14:23.644Z,11.60
2017-10-01T22:16:53.029Z,11.60
2017-10-01T22:19:22.286Z,11.60
2017-10-01T22:21:51.532Z,11.60
2017-10-01T22:24:20.943Z,11.70
2017-10-01T22:26:50.990Z,11.70
2017-10-01T22:29:20.267Z,11.70
2017-10-01T22:31:49.653Z,11.70
2017-10-01T22:34:18.961Z,11.60
2017-10-01T22:36:49.035Z,11.50
2017-10-01T22:39:18.422Z,11.50
2017-10-01T22:41:47.898Z,11.50
2017-10-01T22:44:18.027Z,11.50
2017-10-01T22:46:48.161Z,11.60
2017-10-01T22:49:17.633Z,11.50
2017-10-01T22:51:46.890Z,11.60
2017-10-01T22:54:16.159Z,11.60
2017-10-01T22:56:45.517Z,11.50
2017-10-01T22:59:15.086Z,11.50
2017-10-01T23:01:44.361Z,11.50
2017-10-01T23:04:14.464Z,11.50
2017-10-01T23:06:43.768Z,11.50
2017-10-01T23:09:13.265Z,11.50
2017-10-01T23:11:42.506Z,11.60
2017-10-01T23:14:11.877Z,11.50
2017-10-01T23:16:41.126Z,11.50
2017-10-01T23:19:10.382Z,11.50
2017-10-01T23:21:39.630Z,11.60
2017-10-01T23:24:08.871Z,11.50
2017-10-01T23:26:38.129Z,11.60
2017-10-01T23:29:07.377Z,11.50
2017-10-01T23:31:36.816Z,11.40
2017-10-01T23:34:06.073Z,11.40
2017-10-01T23:36:35.385Z,11.30
2017-10-01T23:39:04.801Z,11.40
2017-10-01T23:41:34.037Z,11.40
2017-10-01T23:44:03.297Z,11.50
2017-10-01T23:46:33.309Z,11.60
2017-10-01T23:49:02.702Z,11.60
2017-10-01T23:51:32.009Z,11.60
2017-10-01T23:54:01.327Z,11.60
2017-10-01T23:56:31.445Z,11.70
2017-10-01T23:59:01.513Z,11.70
